sensor_id;sensor_type;location;lat;lon;timestamp;pressure;altitude;pressure_sealevel;temperature;humidity
40502;BME280;29631;49.168;9.848;2022-12-24T00:00:05;96008.75;;;15.14;100.00
40502;BME280;29631;49.168;9.848;2022-12-24T00:02:31;96022.06;;;15.19;100.00
40502;BME280;29631;49.168;9.848;2022-12-24T00:04:57;96035.28;;;15.14;100.00
40502;BME280;29631;49.168;9.848;2022-12-24T00:07:23;96035.81;;;15.16;100.00
40502;BME280;29631;49.168;9.848;2022-12-24T00:09:48;96019.75;;;15.01;100.00
40502;BME280;29631;49.168;9.848;2022-12-24T00:12:14;96034.25;;;15.15;100.00
40502;BME280;29631;49.168;9.848;2022-12-24T00:14:40;96046.06;;;15.24;100.00
40502;BME280;29631;49.168;9.848;2022-12-24T00:17:05;96026.91;;;15.22;100.00
40502;BME280;29631;49.168;9.848;2022-12-24T00:19:31;95993.06;;;14.91;100.00
40502;BME280;29631;49.168;9.848;2022-12-24T00:21:57;96045.00;;;15.25;100.00
40502;BME280;29631;49.168;9.848;2022-12-24T00:24:22;96031.09;;;15.18;100.00
40502;BME280;29631;49.168;9.848;2022-12-24T00:26:48;96024.00;;;15.24;100.00
40502;BME280;29631;49.168;9.848;2022-12-24T00:29:14;96039.56;;;15.36;100.00
40502;BME280;29631;49.168;9.848;2022-12-24T00:31:40;96037.16;;;15.35;100.00
40502;BME280;29631;49.168;9.848;2022-12-24T00:34:05;96058.03;;;15.48;100.00
40502;BME280;29631;49.168;9.848;2022-12-24T00:36:33;95985.28;;;15.06;100.00
40502;BME280;29631;49.168;9.848;2022-12-24T00:38:58;96026.16;;;15.48;100.00
40502;BME280;29631;49.168;9.848;2022-12-24T00:41:24;96038.97;;;15.56;100.00
40502;BME280;29631;49.168;9.848;2022-12-24T00:44:08;96034.91;;;15.48;100.00
40502;BME280;29631;49.168;9.848;2022-12-24T00:46:37;96055.91;;;15.50;100.00
40502;BME280;29631;49.168;9.848;2022-12-24T00:49:04;96052.72;;;15.48;100.00
40502;BME280;29631;49.168;9.848;2022-12-24T00:51:31;96059.50;;;15.39;100.00
40502;BME280;29631;49.168;9.848;2022-12-24T00:53:58;96077.06;;;15.40;100.00
40502;BME280;29631;49.168;9.848;2022-12-24T00:56:24;96072.22;;;15.37;100.00
40502;BME280;29631;49.168;9.848;2022-12-24T00:58:50;96081.25;;;15.36;100.00
40502;BME280;29631;49.168;9.848;2022-12-24T01:01:16;96077.19;;;15.28;100.00
40502;BME280;29631;49.168;9.848;2022-12-24T01:03:42;96053.16;;;15.19;100.00
40502;BME280;29631;49.168;9.848;2022-12-24T01:06:12;96077.28;;;15.17;100.00
40502;BME280;29631;49.168;9.848;2022-12-24T01:08:39;96076.53;;;15.00;100.00
40502;BME280;29631;49.168;9.848;2022-12-24T01:11:07;96088.88;;;15.11;100.00
40502;BME280;29631;49.168;9.848;2022-12-24T01:13:35;96096.31;;;15.09;100.00
40502;BME280;29631;49.168;9.848;2022-12-24T01:16:01;96090.06;;;14.99;100.00
40502;BME280;29631;49.168;9.848;2022-12-24T01:18:27;96088.19;;;14.99;100.00
40502;BME280;29631;49.168;9.848;2022-12-24T01:20:59;96097.78;;;15.00;100.00
40502;BME280;29631;49.168;9.848;2022-12-24T01:23:26;96114.81;;;15.04;100.00
40502;BME280;29631;49.168;9.848;2022-12-24T01:25:53;96096.16;;;14.99;100.00
40502;BME280;29631;49.168;9.848;2022-12-24T01:28:20;96092.94;;;14.97;100.00
40502;BME280;29631;49.168;9.848;2022-12-24T01:30:47;96099.31;;;14.96;100.00
40502;BME280;29631;49.168;9.848;2022-12-24T01:33:13;96113.19;;;15.03;100.00
40502;BME280;29631;49.168;9.848;2022-12-24T01:35:40;96126.47;;;15.03;100.00
40502;BME280;29631;49.168;9.848;2022-12-24T01:38:07;96122.34;;;15.12;100.00
40502;BME280;29631;49.168;9.848;2022-12-24T01:40:33;96133.47;;;15.09;100.00
40502;BME280;29631;49.168;9.848;2022-12-24T01:43:20;96127.03;;;15.05;100.00
40502;BME280;29631;49.168;9.848;2022-12-24T01:45:57;96123.91;;;15.08;100.00
40502;BME280;29631;49.168;9.848;2022-12-24T01:51:47;96135.56;;;15.07;100.00
40502;BME280;29631;49.168;9.848;2022-12-24T01:54:30;96124.31;;;15.00;100.00
40502;BME280;29631;49.168;9.848;2022-12-24T01:57:10;96134.94;;;15.00;100.00
40502;BME280;29631;49.168;9.848;2022-12-24T01:59:41;96149.56;;;15.03;100.00
40502;BME280;29631;49.168;9.848;2022-12-24T02:02:09;96141.53;;;14.98;100.00
40502;BME280;29631;49.168;9.848;2022-12-24T02:04:59;96162.06;;;15.02;100.00
40502;BME280;29631;49.168;9.848;2022-12-24T02:07:27;96161.47;;;15.00;100.00
40502;BME280;29631;49.168;9.848;2022-12-24T02:09:57;96131.22;;;14.63;100.00
40502;BME280;29631;49.168;9.848;2022-12-24T02:12:26;96190.28;;;15.08;100.00
40502;BME280;29631;49.168;9.848;2022-12-24T02:14:52;96195.34;;;15.10;100.00
40502;BME280;29631;49.168;9.848;2022-12-24T02:24:27;96215.47;;;15.06;100.00
40502;BME280;29631;49.168;9.848;2022-12-24T02:30:40;96211.28;;;14.93;100.00
40502;BME280;29631;49.168;9.848;2022-12-24T02:33:25;96209.34;;;14.89;100.00
40502;BME280;29631;49.168;9.848;2022-12-24T02:36:05;96222.78;;;14.99;100.00
40502;BME280;29631;49.168;9.848;2022-12-24T02:38:54;96238.22;;;15.02;100.00
40502;BME280;29631;49.168;9.848;2022-12-24T02:41:34;96233.09;;;14.95;100.00
40502;BME280;29631;49.168;9.848;2022-12-24T02:44:26;96219.19;;;14.88;100.00
40502;BME280;29631;49.168;9.848;2022-12-24T02:46:54;96230.84;;;14.87;100.00
40502;BME280;29631;49.168;9.848;2022-12-24T02:49:21;96235.50;;;14.80;100.00
40502;BME280;29631;49.168;9.848;2022-12-24T02:51:46;96234.38;;;14.76;100.00
40502;BME280;29631;49.168;9.848;2022-12-24T02:54:13;96215.63;;;14.66;100.00
40502;BME280;29631;49.168;9.848;2022-12-24T03:00:03;96249.88;;;14.84;100.00
40502;BME280;29631;49.168;9.848;2022-12-24T03:08:20;96257.06;;;14.84;100.00
40502;BME280;29631;49.168;9.848;2022-12-24T03:11:01;96252.72;;;14.78;100.00
40502;BME280;29631;49.168;9.848;2022-12-24T03:13:28;96243.91;;;14.77;100.00
40502;BME280;29631;49.168;9.848;2022-12-24T03:15:54;96244.56;;;14.84;100.00
40502;BME280;29631;49.168;9.848;2022-12-24T03:18:23;96242.41;;;14.81;100.00
40502;BME280;29631;49.168;9.848;2022-12-24T03:21:15;96239.44;;;14.78;100.00
40502;BME280;29631;49.168;9.848;2022-12-24T03:23:42;96247.88;;;14.75;100.00
40502;BME280;29631;49.168;9.848;2022-12-24T03:26:10;96265.91;;;14.73;100.00
40502;BME280;29631;49.168;9.848;2022-12-24T03:28:39;96240.00;;;14.63;100.00
40502;BME280;29631;49.168;9.848;2022-12-24T03:31:06;96256.00;;;14.68;100.00
40502;BME280;29631;49.168;9.848;2022-12-24T03:33:33;96225.81;;;14.42;100.00
40502;BME280;29631;49.168;9.848;2022-12-24T03:35:59;96279.25;;;14.78;100.00
40502;BME280;29631;49.168;9.848;2022-12-24T03:38:25;96271.75;;;14.75;100.00
40502;BME280;29631;49.168;9.848;2022-12-24T03:40:51;96274.72;;;14.78;100.00
40502;BME280;29631;49.168;9.848;2022-12-24T03:43:17;96274.72;;;14.78;100.00
40502;BME280;29631;49.168;9.848;2022-12-24T03:45:43;96279.56;;;14.81;100.00
40502;BME280;29631;49.168;9.848;2022-12-24T03:48:08;96264.59;;;14.75;100.00
40502;BME280;29631;49.168;9.848;2022-12-24T03:50:34;96275.31;;;14.80;100.00
40502;BME280;29631;49.168;9.848;2022-12-24T03:53:00;96289.69;;;14.84;100.00
40502;BME280;29631;49.168;9.848;2022-12-24T03:55:25;96285.34;;;14.78;100.00
40502;BME280;29631;49.168;9.848;2022-12-24T03:57:51;96291.47;;;14.79;100.00
40502;BME280;29631;49.168;9.848;2022-12-24T04:00:18;96277.47;;;14.67;100.00
40502;BME280;29631;49.168;9.848;2022-12-24T04:02:43;96302.88;;;14.79;100.00
40502;BME280;29631;49.168;9.848;2022-12-24T04:05:16;96297.56;;;14.79;100.00
40502;BME280;29631;49.168;9.848;2022-12-24T04:07:42;96283.09;;;14.70;100.00
40502;BME280;29631;49.168;9.848;2022-12-24T04:10:09;96295.97;;;14.78;100.00
40502;BME280;29631;49.168;9.848;2022-12-24T04:12:35;96290.09;;;14.76;100.00
40502;BME280;29631;49.168;9.848;2022-12-24T04:15:01;96317.38;;;14.88;100.00
40502;BME280;29631;49.168;9.848;2022-12-24T04:17:27;96324.78;;;14.86;99.99
40502;BME280;29631;49.168;9.848;2022-12-24T04:19:53;96308.03;;;14.69;99.96
40502;BME280;29631;49.168;9.848;2022-12-24T04:22:19;96321.94;;;14.76;99.96
40502;BME280;29631;49.168;9.848;2022-12-24T04:24:44;96337.47;;;14.84;100.00
40502;BME280;29631;49.168;9.848;2022-12-24T04:27:12;96346.25;;;14.85;100.00
40502;BME280;29631;49.168;9.848;2022-12-24T04:29:38;96321.22;;;14.81;99.27
40502;BME280;29631;49.168;9.848;2022-12-24T04:32:04;96330.47;;;14.78;99.08
40502;BME280;29631;49.168;9.848;2022-12-24T04:34:29;96342.78;;;14.84;99.16
40502;BME280;29631;49.168;9.848;2022-12-24T04:36:55;96344.56;;;14.79;99.46
40502;BME280;29631;49.168;9.848;2022-12-24T04:39:21;96339.47;;;14.77;98.72
40502;BME280;29631;49.168;9.848;2022-12-24T04:41:46;96330.88;;;14.70;98.79
40502;BME280;29631;49.168;9.848;2022-12-24T04:44:12;96308.31;;;14.56;99.20
40502;BME280;29631;49.168;9.848;2022-12-24T04:46:38;96316.50;;;14.55;99.12
40502;BME280;29631;49.168;9.848;2022-12-24T04:49:04;96336.47;;;14.57;99.17
40502;BME280;29631;49.168;9.848;2022-12-24T04:51:30;96323.09;;;14.52;99.59
40502;BME280;29631;49.168;9.848;2022-12-24T04:53:56;96308.13;;;14.47;99.45
40502;BME280;29631;49.168;9.848;2022-12-24T04:56:26;96327.59;;;14.52;99.06
40502;BME280;29631;49.168;9.848;2022-12-24T04:58:52;96315.84;;;14.48;99.31
40502;BME280;29631;49.168;9.848;2022-12-24T05:01:24;96323.09;;;14.52;99.20
40502;BME280;29631;49.168;9.848;2022-12-24T05:03:51;96319.06;;;14.50;98.59
40502;BME280;29631;49.168;9.848;2022-12-24T05:06:31;96328.28;;;14.48;99.38
40502;BME280;29631;49.168;9.848;2022-12-24T05:08:58;96311.38;;;14.37;99.47
40502;BME280;29631;49.168;9.848;2022-12-24T05:11:24;96333.50;;;14.43;99.41
40502;BME280;29631;49.168;9.848;2022-12-24T05:13:50;96308.72;;;14.37;99.30
40502;BME280;29631;49.168;9.848;2022-12-24T05:16:19;96328.66;;;14.40;99.43
40502;BME280;29631;49.168;9.848;2022-12-24T05:18:45;96319.50;;;14.31;99.36
40502;BME280;29631;49.168;9.848;2022-12-24T05:21:16;96347.81;;;14.42;99.70
40502;BME280;29631;49.168;9.848;2022-12-24T05:23:42;96362.78;;;14.48;99.09
40502;BME280;29631;49.168;9.848;2022-12-24T05:26:48;96348.16;;;14.45;99.15
40502;BME280;29631;49.168;9.848;2022-12-24T05:29:15;96334.47;;;14.37;99.96
40502;BME280;29631;49.168;9.848;2022-12-24T05:31:42;96350.38;;;14.37;99.76
40502;BME280;29631;49.168;9.848;2022-12-24T05:34:11;96332.75;;;14.31;99.61
40502;BME280;29631;49.168;9.848;2022-12-24T05:36:37;96345.53;;;14.34;99.84
40502;BME280;29631;49.168;9.848;2022-12-24T05:39:04;96314.22;;;14.19;100.00
40502;BME280;29631;49.168;9.848;2022-12-24T05:41:30;96335.84;;;14.28;100.00
40502;BME280;29631;49.168;9.848;2022-12-24T05:43:56;96339.44;;;14.22;99.67
40502;BME280;29631;49.168;9.848;2022-12-24T05:46:23;96353.97;;;14.31;99.87
40502;BME280;29631;49.168;9.848;2022-12-24T05:48:50;96360.50;;;14.40;100.00
40502;BME280;29631;49.168;9.848;2022-12-24T05:51:18;96350.38;;;14.37;100.00
40502;BME280;29631;49.168;9.848;2022-12-24T05:53:45;96351.50;;;14.41;99.97
40502;BME280;29631;49.168;9.848;2022-12-24T05:56:19;96350.72;;;14.40;99.83
40502;BME280;29631;49.168;9.848;2022-12-24T05:58:45;96315.59;;;14.22;99.86
40502;BME280;29631;49.168;9.848;2022-12-24T06:01:11;96330.66;;;14.33;100.00
40502;BME280;29631;49.168;9.848;2022-12-24T06:03:37;96362.78;;;14.48;100.00
40502;BME280;29631;49.168;9.848;2022-12-24T06:06:16;96347.34;;;14.45;99.83
40502;BME280;29631;49.168;9.848;2022-12-24T06:08:46;96351.50;;;14.41;100.00
40502;BME280;29631;49.168;9.848;2022-12-24T06:11:15;96352.66;;;14.45;99.96
40502;BME280;29631;49.168;9.848;2022-12-24T06:13:42;96361.84;;;14.53;100.00
40502;BME280;29631;49.168;9.848;2022-12-24T06:16:11;96339.28;;;14.40;99.95
40502;BME280;29631;49.168;9.848;2022-12-24T06:18:38;96366.34;;;14.53;99.88
40502;BME280;29631;49.168;9.848;2022-12-24T06:21:04;96376.97;;;14.53;99.52
40502;BME280;29631;49.168;9.848;2022-12-24T06:23:34;96334.41;;;14.20;99.96
40502;BME280;29631;49.168;9.848;2022-12-24T06:26:02;96371.44;;;14.43;99.82
40502;BME280;29631;49.168;9.848;2022-12-24T06:28:31;96357.16;;;14.33;100.00
40502;BME280;29631;49.168;9.848;2022-12-24T06:30:57;96375.47;;;14.46;100.00
40502;BME280;29631;49.168;9.848;2022-12-24T06:33:23;96380.56;;;14.47;100.00
40502;BME280;29631;49.168;9.848;2022-12-24T06:35:49;96389.97;;;14.54;100.00
40502;BME280;29631;49.168;9.848;2022-12-24T06:38:15;96386.56;;;14.43;100.00
40502;BME280;29631;49.168;9.848;2022-12-24T06:40:43;96356.63;;;14.31;100.00
40502;BME280;29631;49.168;9.848;2022-12-24T06:43:09;96401.63;;;14.53;100.00
40502;BME280;29631;49.168;9.848;2022-12-24T06:45:36;96381.38;;;14.36;100.00
40502;BME280;29631;49.168;9.848;2022-12-24T06:48:01;96407.97;;;14.52;100.00
40502;BME280;29631;49.168;9.848;2022-12-24T06:50:27;96404.44;;;14.47;100.00
40502;BME280;29631;49.168;9.848;2022-12-24T06:52:53;96416.50;;;14.54;100.00
40502;BME280;29631;49.168;9.848;2022-12-24T06:55:19;96362.88;;;14.25;100.00
40502;BME280;29631;49.168;9.848;2022-12-24T06:57:44;96385.88;;;14.36;99.92
40502;BME280;29631;49.168;9.848;2022-12-24T07:00:11;96424.56;;;14.59;100.00
40502;BME280;29631;49.168;9.848;2022-12-24T07:02:42;96421.34;;;14.57;99.86
40502;BME280;29631;49.168;9.848;2022-12-24T07:05:10;96398.09;;;14.37;100.00
40502;BME280;29631;49.168;9.848;2022-12-24T07:07:38;96422.28;;;14.51;100.00
40502;BME280;29631;49.168;9.848;2022-12-24T07:10:06;96434.28;;;14.54;100.00
40502;BME280;29631;49.168;9.848;2022-12-24T07:12:32;96446.94;;;14.63;100.00
40502;BME280;29631;49.168;9.848;2022-12-24T07:14:58;96448.53;;;14.64;99.34
40502;BME280;29631;49.168;9.848;2022-12-24T07:17:23;96448.34;;;14.54;99.37
40502;BME280;29631;49.168;9.848;2022-12-24T07:19:49;96465.75;;;14.62;99.82
40502;BME280;29631;49.168;9.848;2022-12-24T07:22:15;96447.75;;;14.52;99.50
40502;BME280;29631;49.168;9.848;2022-12-24T07:24:41;96446.28;;;14.56;99.91
40502;BME280;29631;49.168;9.848;2022-12-24T07:27:06;96459.31;;;14.58;99.86
40502;BME280;29631;49.168;9.848;2022-12-24T07:29:33;96465.19;;;14.49;100.00
40502;BME280;29631;49.168;9.848;2022-12-24T07:31:59;96454.09;;;14.51;99.75
40502;BME280;29631;49.168;9.848;2022-12-24T07:34:25;96453.78;;;14.48;99.62
40502;BME280;29631;49.168;9.848;2022-12-24T07:36:51;96482.38;;;14.46;99.49
40502;BME280;29631;49.168;9.848;2022-12-24T07:39:16;96482.13;;;14.59;100.00
40502;BME280;29631;49.168;9.848;2022-12-24T07:41:42;96477.44;;;14.50;99.35
40502;BME280;29631;49.168;9.848;2022-12-24T07:44:12;96434.81;;;14.17;99.35
40502;BME280;29631;49.168;9.848;2022-12-24T07:46:38;96480.53;;;14.58;100.00
40502;BME280;29631;49.168;9.848;2022-12-24T07:49:04;96448.03;;;14.40;99.87
40502;BME280;29631;49.168;9.848;2022-12-24T07:51:29;96476.34;;;14.62;99.53
40502;BME280;29631;49.168;9.848;2022-12-24T07:53:55;96499.09;;;14.69;99.30
40502;BME280;29631;49.168;9.848;2022-12-24T07:56:21;96473.94;;;14.60;99.23
40502;BME280;29631;49.168;9.848;2022-12-24T07:58:48;96476.34;;;14.62;98.78
40502;BME280;29631;49.168;9.848;2022-12-24T08:01:14;96470.25;;;14.61;98.82
40502;BME280;29631;49.168;9.848;2022-12-24T08:03:39;96487.78;;;14.62;98.52
40502;BME280;29631;49.168;9.848;2022-12-24T08:06:05;96498.59;;;14.72;98.81
40502;BME280;29631;49.168;9.848;2022-12-24T08:08:31;96485.47;;;14.66;99.11
40502;BME280;29631;49.168;9.848;2022-12-24T08:11:05;96497.13;;;14.65;99.16
40502;BME280;29631;49.168;9.848;2022-12-24T08:13:32;96507.59;;;14.71;98.59
40502;BME280;29631;49.168;9.848;2022-12-24T08:15:58;96503.81;;;14.67;98.58
40502;BME280;29631;49.168;9.848;2022-12-24T08:18:24;96510.72;;;14.68;98.78
40502;BME280;29631;49.168;9.848;2022-12-24T08:20:50;96515.94;;;14.63;98.39
40502;BME280;29631;49.168;9.848;2022-12-24T08:23:16;96514.19;;;14.69;98.14
40502;BME280;29631;49.168;9.848;2022-12-24T08:25:45;96508.53;;;14.65;98.61
40502;BME280;29631;49.168;9.848;2022-12-24T08:28:12;96490.78;;;14.54;98.80
40502;BME280;29631;49.168;9.848;2022-12-24T08:30:39;96504.16;;;14.59;98.94
40502;BME280;29631;49.168;9.848;2022-12-24T08:33:04;96528.97;;;14.76;98.43
40502;BME280;29631;49.168;9.848;2022-12-24T08:35:30;96527.69;;;14.67;97.97
40502;BME280;29631;49.168;9.848;2022-12-24T08:37:56;96529.88;;;14.70;98.59
40502;BME280;29631;49.168;9.848;2022-12-24T08:40:22;96519.03;;;14.60;98.71
40502;BME280;29631;49.168;9.848;2022-12-24T08:42:48;96491.53;;;14.39;97.99
40502;BME280;29631;49.168;9.848;2022-12-24T08:45:14;96517.66;;;14.58;98.30
40502;BME280;29631;49.168;9.848;2022-12-24T08:47:40;96528.97;;;14.65;98.25
40502;BME280;29631;49.168;9.848;2022-12-24T08:50:06;96539.00;;;14.74;97.70
40502;BME280;29631;49.168;9.848;2022-12-24T08:52:32;96549.13;;;14.77;98.16
40502;BME280;29631;49.168;9.848;2022-12-24T08:54:58;96553.53;;;14.83;98.36
40502;BME280;29631;49.168;9.848;2022-12-24T08:57:24;96565.38;;;14.81;97.74
40502;BME280;29631;49.168;9.848;2022-12-24T08:59:50;96540.38;;;14.65;98.40
40502;BME280;29631;49.168;9.848;2022-12-24T09:02:15;96550.88;;;14.72;98.03
40502;BME280;29631;49.168;9.848;2022-12-24T09:04:41;96511.13;;;14.38;98.23
40502;BME280;29631;49.168;9.848;2022-12-24T09:07:08;96531.16;;;14.56;97.93
40502;BME280;29631;49.168;9.848;2022-12-24T09:09:35;96556.19;;;14.83;98.15
40502;BME280;29631;49.168;9.848;2022-12-24T09:12:01;96552.06;;;15.15;98.29
40502;BME280;29631;49.168;9.848;2022-12-24T09:14:28;96548.69;;;15.31;97.03
40502;BME280;29631;49.168;9.848;2022-12-24T09:16:53;96567.97;;;15.66;96.01
40502;BME280;29631;49.168;9.848;2022-12-24T09:19:19;96560.66;;;15.73;95.95
40502;BME280;29631;49.168;9.848;2022-12-24T09:21:45;96578.53;;;15.94;95.36
40502;BME280;29631;49.168;9.848;2022-12-24T09:24:10;96589.69;;;16.07;94.79
40502;BME280;29631;49.168;9.848;2022-12-24T09:26:36;96572.75;;;15.97;95.34
40502;BME280;29631;49.168;9.848;2022-12-24T09:29:04;96606.44;;;16.07;94.82
40502;BME280;29631;49.168;9.848;2022-12-24T09:31:30;96571.53;;;15.88;94.95
40502;BME280;29631;49.168;9.848;2022-12-24T09:33:55;96624.53;;;16.05;95.55
40502;BME280;29631;49.168;9.848;2022-12-24T09:36:21;96608.38;;;15.96;95.56
40502;BME280;29631;49.168;9.848;2022-12-24T09:38:48;96613.31;;;16.03;95.95
40502;BME280;29631;49.168;9.848;2022-12-24T09:47:38;96610.59;;;16.15;96.21
40502;BME280;29631;49.168;9.848;2022-12-24T09:50:31;96633.91;;;16.24;96.90
40502;BME280;29631;49.168;9.848;2022-12-24T09:53:05;96624.31;;;16.23;96.46
40502;BME280;29631;49.168;9.848;2022-12-24T09:55:57;96619.41;;;16.32;95.96
40502;BME280;29631;49.168;9.848;2022-12-24T09:58:36;96626.19;;;16.39;95.77
40502;BME280;29631;49.168;9.848;2022-12-24T10:01:03;96628.44;;;16.47;95.99
40502;BME280;29631;49.168;9.848;2022-12-24T10:03:30;96621.50;;;16.46;95.87
40502;BME280;29631;49.168;9.848;2022-12-24T10:11:42;96643.13;;;16.33;95.92
40502;BME280;29631;49.168;9.848;2022-12-24T10:23:43;96648.34;;;16.00;96.94
40502;BME280;29631;49.168;9.848;2022-12-24T10:26:29;96640.38;;;16.00;96.16
40502;BME280;29631;49.168;9.848;2022-12-24T10:29:05;96618.72;;;16.08;96.92
40502;BME280;29631;49.168;9.848;2022-12-24T10:34:29;96611.09;;;16.28;95.87
40502;BME280;29631;49.168;9.848;2022-12-24T10:36:56;96599.75;;;16.33;95.42
40502;BME280;29631;49.168;9.848;2022-12-24T10:39:25;96614.09;;;16.48;95.35
40502;BME280;29631;49.168;9.848;2022-12-24T10:41:54;96615.72;;;16.66;95.14
40502;BME280;29631;49.168;9.848;2022-12-24T10:44:26;96595.88;;;16.57;95.66
40502;BME280;29631;49.168;9.848;2022-12-24T10:46:53;96622.13;;;16.86;95.04
40502;BME280;29631;49.168;9.848;2022-12-24T10:49:38;96567.81;;;16.49;95.03
40502;BME280;29631;49.168;9.848;2022-12-24T10:52:14;96612.03;;;17.04;94.71
40502;BME280;29631;49.168;9.848;2022-12-24T10:57:31;96625.28;;;17.37;95.26
40502;BME280;29631;49.168;9.848;2022-12-24T10:59:58;96634.28;;;17.52;95.27
40502;BME280;29631;49.168;9.848;2022-12-24T11:02:38;96638.22;;;17.71;94.92
40502;BME280;29631;49.168;9.848;2022-12-24T11:05:30;96634.63;;;17.82;94.02
40502;BME280;29631;49.168;9.848;2022-12-24T11:08:15;96614.50;;;17.70;94.06
40502;BME280;29631;49.168;9.848;2022-12-24T11:10:57;96631.06;;;17.77;93.82
40502;BME280;29631;49.168;9.848;2022-12-24T11:13:42;96622.97;;;17.67;94.09
40502;BME280;29631;49.168;9.848;2022-12-24T11:16:34;96634.06;;;17.59;93.84
40502;BME280;29631;49.168;9.848;2022-12-24T11:19:05;96621.63;;;17.43;93.76
40502;BME280;29631;49.168;9.848;2022-12-24T11:21:40;96628.50;;;17.39;93.46
40502;BME280;29631;49.168;9.848;2022-12-24T11:26:41;96608.84;;;17.07;93.35
40502;BME280;29631;49.168;9.848;2022-12-24T11:31:33;96605.84;;;16.82;92.83
40502;BME280;29631;49.168;9.848;2022-12-24T11:34:27;96622.47;;;16.73;93.25
40502;BME280;29631;49.168;9.848;2022-12-24T11:37:08;96639.69;;;16.66;93.12
40502;BME280;29631;49.168;9.848;2022-12-24T11:39:40;96624.56;;;16.55;93.12
40502;BME280;29631;49.168;9.848;2022-12-24T11:42:06;96636.69;;;16.62;93.65
40502;BME280;29631;49.168;9.848;2022-12-24T11:44:49;96619.56;;;16.58;93.04
40502;BME280;29631;49.168;9.848;2022-12-24T11:47:15;96637.81;;;16.66;92.85
40502;BME280;29631;49.168;9.848;2022-12-24T11:49:41;96576.41;;;16.23;92.78
40502;BME280;29631;49.168;9.848;2022-12-24T11:58:02;96658.06;;;16.67;92.64
40502;BME280;29631;49.168;9.848;2022-12-24T12:00:30;96637.66;;;16.56;92.96
40502;BME280;29631;49.168;9.848;2022-12-24T12:02:59;96634.44;;;16.54;93.04
40502;BME280;29631;49.168;9.848;2022-12-24T12:05:31;96631.03;;;16.42;92.51
40502;BME280;29631;49.168;9.848;2022-12-24T12:08:14;96630.53;;;16.29;92.89
40502;BME280;29631;49.168;9.848;2022-12-24T12:10:42;96578.84;;;15.81;93.17
40502;BME280;29631;49.168;9.848;2022-12-24T12:13:17;96630.97;;;16.09;92.97
40502;BME280;29631;49.168;9.848;2022-12-24T12:18:38;96645.50;;;15.91;93.30
40502;BME280;29631;49.168;9.848;2022-12-24T12:21:29;96638.81;;;15.88;93.83
40502;BME280;29631;49.168;9.848;2022-12-24T12:24:10;96650.63;;;15.81;93.70
40502;BME280;29631;49.168;9.848;2022-12-24T12:26:39;96640.81;;;15.81;93.46
40502;BME280;29631;49.168;9.848;2022-12-24T12:30:25;96650.75;;;15.86;93.59
40502;BME280;29631;49.168;9.848;2022-12-24T12:33:08;96646.25;;;15.75;93.66
40502;BME280;29631;49.168;9.848;2022-12-24T12:35:40;96644.44;;;15.75;93.69
40502;BME280;29631;49.168;9.848;2022-12-24T12:38:21;96648.47;;;15.78;93.99
40502;BME280;29631;49.168;9.848;2022-12-24T12:41:15;96654.91;;;15.82;93.98
40502;BME280;29631;49.168;9.848;2022-12-24T12:49:38;96658.22;;;15.61;94.65
40502;BME280;29631;49.168;9.848;2022-12-24T12:55:22;96660.06;;;15.60;94.42
40502;BME280;29631;49.168;9.848;2022-12-24T12:57:59;96667.00;;;15.61;94.54
40502;BME280;29631;49.168;9.848;2022-12-24T13:00:30;96654.50;;;15.62;94.65
40502;BME280;29631;49.168;9.848;2022-12-24T13:03:13;96651.97;;;15.67;94.06
40502;BME280;29631;49.168;9.848;2022-12-24T13:11:38;96656.88;;;15.75;93.71
40502;BME280;29631;49.168;9.848;2022-12-24T13:20:19;96645.94;;;15.71;94.00
40502;BME280;29631;49.168;9.848;2022-12-24T13:22:59;96642.91;;;15.79;93.92
40502;BME280;29631;49.168;9.848;2022-12-24T13:25:36;96656.16;;;15.91;94.12
40502;BME280;29631;49.168;9.848;2022-12-24T13:36:12;96646.72;;;16.27;93.29
40502;BME280;29631;49.168;9.848;2022-12-24T13:38:56;96648.47;;;16.66;92.78
40502;BME280;29631;49.168;9.848;2022-12-24T13:49:43;96648.03;;;17.45;90.58
40502;BME280;29631;49.168;9.848;2022-12-24T13:54:42;96632.34;;;17.48;90.78
40502;BME280;29631;49.168;9.848;2022-12-24T13:57:30;96648.03;;;17.45;90.51
40502;BME280;29631;49.168;9.848;2022-12-24T14:02:59;96655.91;;;17.35;90.94
40502;BME280;29631;49.168;9.848;2022-12-24T14:08:33;96653.59;;;17.05;91.84
40502;BME280;29631;49.168;9.848;2022-12-24T14:16:31;96661.13;;;16.75;92.61
40502;BME280;29631;49.168;9.848;2022-12-24T14:21:51;96658.84;;;16.51;93.31
40502;BME280;29631;49.168;9.848;2022-12-24T14:24:25;96649.59;;;16.37;93.01
40502;BME280;29631;49.168;9.848;2022-12-24T14:27:13;96669.25;;;16.36;93.27
40502;BME280;29631;49.168;9.848;2022-12-24T14:32:35;96657.28;;;16.22;93.74
40502;BME280;29631;49.168;9.848;2022-12-24T14:35:29;96662.97;;;16.14;92.96
40502;BME280;29631;49.168;9.848;2022-12-24T14:38:04;96663.13;;;16.08;94.09
40502;BME280;29631;49.168;9.848;2022-12-24T14:40:46;96655.19;;;15.97;93.51
40502;BME280;29631;49.168;9.848;2022-12-24T14:46:55;96661.44;;;16.02;93.51
40502;BME280;29631;49.168;9.848;2022-12-24T14:49:40;96667.53;;;16.02;93.51
40502;BME280;29631;49.168;9.848;2022-12-24T14:53:18;96657.41;;;15.99;93.48
40502;BME280;29631;49.168;9.848;2022-12-24T14:55:42;96659.94;;;15.95;93.56
40502;BME280;29631;49.168;9.848;2022-12-24T14:58:30;96664.78;;;15.98;92.91
40502;BME280;29631;49.168;9.848;2022-12-24T15:01:00;96667.69;;;15.96;93.05
40502;BME280;29631;49.168;9.848;2022-12-24T15:03:30;96680.25;;;16.00;93.47
40502;BME280;29631;49.168;9.848;2022-12-24T15:06:02;96679.31;;;16.06;93.70
40502;BME280;29631;49.168;9.848;2022-12-24T15:08:37;96661.75;;;16.05;92.98
40502;BME280;29631;49.168;9.848;2022-12-24T15:11:16;96666.22;;;16.16;93.21
40502;BME280;29631;49.168;9.848;2022-12-24T15:13:48;96651.28;;;16.15;93.18
40502;BME280;29631;49.168;9.848;2022-12-24T15:16:29;96672.91;;;16.19;92.02